Аэропорт: Аулие-Ата. Тараз

ICAO: UADD

METAR:
2020-08-09 22:00:00
UADD 092200Z 19004MPS 9999 NSC 24/09 Q1005 R13/0///65 NOSIG RMK QFE697/0930
METAR:
2020-08-09 17:00:00
TAF UADD 091700Z 0918/1003 16005G10MPS 9999 SCT050CB BKN100 PROB40 TEMPO 0918/0924 VRB13MPS -TSRA